createdAt,value
2018-12-21T00:00:15.134Z,997.1
2018-12-21T00:03:15.705Z,997.0
2018-12-21T00:06:15.410Z,997.0
2018-12-21T00:09:15.040Z,996.8
2018-12-21T00:12:15.510Z,996.9
2018-12-21T00:15:15.118Z,996.8
2018-12-21T00:18:15.668Z,996.7
2018-12-21T00:21:21.795Z,996.7
2018-12-21T00:24:15.809Z,996.7
2018-12-21T00:27:15.530Z,996.7
2018-12-21T00:30:15.168Z,996.7
2018-12-21T00:33:14.937Z,996.7
2018-12-21T00:36:15.549Z,996.6
2018-12-21T00:39:15.339Z,996.6
2018-12-21T00:42:15.594Z,996.6
2018-12-21T00:45:15.257Z,996.6
2018-12-21T00:48:15.664Z,996.6
2018-12-21T00:51:15.427Z,996.6
2018-12-21T00:54:14.987Z,996.6
2018-12-21T00:57:15.782Z,996.6
2018-12-21T01:00:15.510Z,996.6
2018-12-21T01:03:15.883Z,996.5
2018-12-21T01:06:15.600Z,996.5
2018-12-21T01:09:15.075Z,996.5
2018-12-21T01:12:15.491Z,996.5
2018-12-21T01:15:15.116Z,996.5
2018-12-21T01:18:15.115Z,996.5
2018-12-21T01:21:15.033Z,996.5
2018-12-21T01:24:15.075Z,996.3
2018-12-21T01:27:15.714Z,996.4
2018-12-21T01:30:15.277Z,996.4
2018-12-21T01:33:15.891Z,996.4
2018-12-21T01:36:15.549Z,996.4
2018-12-21T01:39:15.152Z,996.4
2018-12-21T01:42:15.772Z,996.4
2018-12-21T01:45:15.542Z,996.4
2018-12-21T01:48:15.375Z,996.4
2018-12-21T01:51:15.005Z,996.4
2018-12-21T01:54:15.613Z,996.4
2018-12-21T01:57:15.178Z,996.3
2018-12-21T02:00:15.750Z,996.4
2018-12-21T02:03:15.362Z,996.3
2018-12-21T02:06:15.044Z,996.4
2018-12-21T02:09:15.698Z,996.4
2018-12-21T02:12:15.156Z,996.2
2018-12-21T02:15:15.680Z,996.2
2018-12-21T02:18:15.257Z,996.1
2018-12-21T02:21:15.733Z,996.2
2018-12-21T02:24:15.256Z,996.1
2018-12-21T02:27:14.919Z,996.0
2018-12-21T02:30:15.529Z,996.0
2018-12-21T02:33:15.239Z,996.0
2018-12-21T02:36:15.917Z,995.9
2018-12-21T02:39:15.606Z,995.9
2018-12-21T02:42:15.592Z,995.9
2018-12-21T02:45:15.213Z,995.9
2018-12-21T02:48:14.947Z,995.8
2018-12-21T02:51:14.919Z,995.8
2018-12-21T02:54:15.955Z,995.7
2018-12-21T02:57:15.677Z,995.7
2018-12-21T03:00:15.305Z,995.6
2018-12-21T03:03:15.148Z,995.6
2018-12-21T03:06:14.950Z,995.5
2018-12-21T03:09:15.837Z,995.5
2018-12-21T03:12:15.714Z,995.4
2018-12-21T03:15:16.053Z,995.2
2018-12-21T03:18:14.913Z,995.2
2018-12-21T03:21:15.918Z,995.1
2018-12-21T03:24:14.843Z,995.1
2018-12-21T03:27:15.823Z,995.0
2018-12-21T03:30:15.794Z,995.0
2018-12-21T03:33:15.292Z,994.9
2018-12-21T03:36:15.818Z,994.8
2018-12-21T03:39:15.508Z,994.8
2018-12-21T03:42:15.194Z,994.8
2018-12-21T03:45:15.809Z,994.7
2018-12-21T03:48:15.348Z,994.7
2018-12-21T03:51:15.029Z,994.6
2018-12-21T03:54:15.646Z,994.7
2018-12-21T03:57:15.264Z,994.6
2018-12-21T04:00:15.773Z,994.5
2018-12-21T04:03:15.439Z,994.6
2018-12-21T04:06:15.275Z,994.4
2018-12-21T04:09:15.963Z,994.4
2018-12-21T04:12:15.854Z,994.4
2018-12-21T04:15:15.510Z,994.4
2018-12-21T04:18:15.311Z,994.3
2018-12-21T04:21:15.974Z,994.3
2018-12-21T04:24:15.417Z,994.2
2018-12-21T04:27:15.255Z,994.2
2018-12-21T04:30:15.415Z,994.1
2018-12-21T04:33:15.131Z,994.1
2018-12-21T04:36:15.780Z,994.1
2018-12-21T04:39:15.520Z,994.1
2018-12-21T04:42:15.529Z,994.0
2018-12-21T04:45:15.104Z,993.9
2018-12-21T04:48:15.722Z,993.8
2018-12-21T04:51:15.416Z,993.8
2018-12-21T04:54:15.111Z,993.8
2018-12-21T04:57:15.801Z,993.8
2018-12-21T05:00:15.285Z,993.8
2018-12-21T05:03:15.007Z,993.8
2018-12-21T05:06:15.584Z,993.8
2018-12-21T05:09:15.386Z,993.7
2018-12-21T05:12:15.050Z,993.5
2018-12-21T05:15:15.694Z,993.4
2018-12-21T05:18:15.223Z,993.4
2018-12-21T05:21:15.849Z,993.5
2018-12-21T05:24:15.532Z,993.5
2018-12-21T05:27:15.445Z,993.4
2018-12-21T05:30:14.971Z,993.4
2018-12-21T05:33:15.530Z,993.2
2018-12-21T05:36:15.140Z,993.1
2018-12-21T05:39:14.961Z,993.0
2018-12-21T05:42:15.532Z,992.9
2018-12-21T05:45:15.262Z,992.8
2018-12-21T05:48:15.752Z,992.8
2018-12-21T05:51:15.615Z,992.7
2018-12-21T05:54:15.464Z,992.6
2018-12-21T05:57:15.147Z,992.5
2018-12-21T06:00:15.926Z,992.5
2018-12-21T06:03:15.590Z,992.5
2018-12-21T06:06:15.191Z,992.4
2018-12-21T06:09:15.719Z,992.3
2018-12-21T06:12:15.369Z,992.2
2018-12-21T06:15:15.107Z,992.1
2018-12-21T06:18:14.986Z,992.0
2018-12-21T06:21:15.851Z,991.9
2018-12-21T06:24:15.638Z,991.8
2018-12-21T06:27:15.386Z,991.8
2018-12-21T06:30:15.266Z,991.8
2018-12-21T06:33:15.976Z,991.8
2018-12-21T06:36:15.863Z,991.8
2018-12-21T06:39:15.744Z,991.7
2018-12-21T06:42:15.458Z,991.7
2018-12-21T06:45:15.262Z,991.6
2018-12-21T06:51:15.297Z,991.5
2018-12-21T06:54:15.399Z,991.4
2018-12-21T06:57:15.486Z,991.3
2018-12-21T07:00:15.416Z,991.2
2018-12-21T07:03:17.249Z,991.1
2018-12-21T07:06:15.560Z,991.0
2018-12-21T07:09:15.449Z,991.0
2018-12-21T07:12:15.376Z,990.9
2018-12-21T07:15:15.233Z,990.9
2018-12-21T07:18:15.419Z,990.8
2018-12-21T07:21:15.449Z,990.8
2018-12-21T07:24:15.168Z,990.7
2018-12-21T07:27:15.048Z,990.6
2018-12-21T07:30:15.067Z,990.5
2018-12-21T07:33:15.090Z,990.4
2018-12-21T07:36:16.058Z,990.4
2018-12-21T07:39:15.073Z,990.3
2018-12-21T07:45:15.119Z,990.3
2018-12-21T07:48:14.984Z,990.3
2018-12-21T07:51:15.694Z,990.2
2018-12-21T07:54:15.424Z,990.2
2018-12-21T07:57:15.342Z,990.2
2018-12-21T08:00:15.070Z,990.1
2018-12-21T08:06:14.997Z,990.0
2018-12-21T08:09:15.873Z,989.9
2018-12-21T08:12:15.415Z,989.8
2018-12-21T08:15:15.020Z,989.8
2018-12-21T08:18:15.976Z,989.9
2018-12-21T08:21:15.304Z,989.7
2018-12-21T08:24:15.149Z,989.7
2018-12-21T08:27:15.047Z,989.7
2018-12-21T08:30:15.744Z,989.8
2018-12-21T08:33:15.424Z,989.8
2018-12-21T08:36:14.995Z,989.7
2018-12-21T08:39:15.664Z,989.6
2018-12-21T08:42:15.379Z,989.5
2018-12-21T08:45:15.092Z,989.4
2018-12-21T08:48:15.674Z,989.3
2018-12-21T08:51:15.362Z,989.3
2018-12-21T08:54:15.243Z,989.1
2018-12-21T08:57:15.215Z,989.0
2018-12-21T09:00:16.070Z,989.0
2018-12-21T09:03:15.100Z,988.9
2018-12-21T09:06:18.531Z,988.8
2018-12-21T09:09:15.480Z,988.7
2018-12-21T09:12:15.170Z,988.5
2018-12-21T09:15:15.068Z,988.4
2018-12-21T09:18:15.112Z,988.3
2018-12-21T09:21:15.851Z,988.3
2018-12-21T09:24:15.466Z,988.2
2018-12-21T09:27:15.215Z,988.2
2018-12-21T09:30:15.997Z,988.2
2018-12-21T09:33:15.840Z,988.2
2018-12-21T09:36:15.586Z,988.2
2018-12-21T09:39:15.512Z,988.0
2018-12-21T09:42:15.274Z,988.1
2018-12-21T09:45:15.237Z,987.9
2018-12-21T09:48:15.143Z,987.9
2018-12-21T09:51:16.040Z,988.0
2018-12-21T09:54:16.026Z,988.0
2018-12-21T09:57:15.786Z,987.9
2018-12-21T10:00:15.474Z,988.0
2018-12-21T10:03:15.145Z,987.9
2018-12-21T10:06:15.817Z,987.9
2018-12-21T10:09:15.071Z,987.9
2018-12-21T10:12:15.916Z,987.8
2018-12-21T10:15:15.757Z,987.7
2018-12-21T10:18:15.477Z,987.7
2018-12-21T10:21:15.193Z,987.6
2018-12-21T10:24:20.001Z,987.6
2018-12-21T10:27:15.834Z,987.5
2018-12-21T10:30:15.397Z,987.5
2018-12-21T10:33:15.552Z,987.5
2018-12-21T10:36:15.251Z,987.4
2018-12-21T10:39:15.195Z,987.4
2018-12-21T10:42:15.187Z,987.5
2018-12-21T10:45:15.166Z,987.3
2018-12-21T10:48:15.888Z,987.4
2018-12-21T10:51:15.735Z,987.2
2018-12-21T10:54:15.714Z,987.2
2018-12-21T10:57:15.758Z,987.2
2018-12-21T11:00:15.566Z,987.1
2018-12-21T11:03:15.128Z,987.1
2018-12-21T11:06:15.843Z,987.0
2018-12-21T11:09:15.545Z,987.0
2018-12-21T11:12:15.182Z,987.1
2018-12-21T11:15:15.129Z,987.0
2018-12-21T11:18:15.851Z,986.8
2018-12-21T11:21:15.744Z,986.9
2018-12-21T11:24:15.845Z,986.8
2018-12-21T11:27:15.274Z,986.7
2018-12-21T11:30:15.276Z,986.6
2018-12-21T11:33:15.579Z,986.6
2018-12-21T11:36:15.461Z,986.8
2018-12-21T11:39:15.173Z,986.7
2018-12-21T11:42:15.226Z,986.7
2018-12-21T11:45:15.794Z,986.7
2018-12-21T11:48:15.556Z,986.6
2018-12-21T11:51:15.313Z,986.7
2018-12-21T11:54:15.247Z,986.6
2018-12-21T11:57:15.099Z,986.6
2018-12-21T12:00:15.872Z,986.6
2018-12-21T12:03:15.787Z,986.6
2018-12-21T12:06:15.403Z,986.6
2018-12-21T12:09:15.241Z,986.7
2018-12-21T12:12:15.169Z,986.6
2018-12-21T12:15:15.864Z,986.6
2018-12-21T12:18:15.463Z,986.5
2018-12-21T12:21:15.238Z,986.6
2018-12-21T12:24:15.819Z,986.5
2018-12-21T12:27:15.547Z,986.6
2018-12-21T12:30:15.315Z,986.3
2018-12-21T12:33:15.252Z,986.4
2018-12-21T12:36:15.312Z,986.4
2018-12-21T12:39:15.184Z,986.4
2018-12-21T12:42:15.226Z,986.5
2018-12-21T12:45:15.250Z,986.5
2018-12-21T12:48:15.468Z,986.4
2018-12-21T12:51:15.164Z,986.3
2018-12-21T12:54:15.893Z,986.4
2018-12-21T12:57:15.651Z,986.5
2018-12-21T13:00:15.307Z,986.4
2018-12-21T13:03:15.201Z,986.4
2018-12-21T13:06:15.967Z,986.4
2018-12-21T13:09:15.879Z,986.3
2018-12-21T13:12:15.723Z,986.3
2018-12-21T13:15:15.388Z,986.2
2018-12-21T13:18:15.791Z,986.2
2018-12-21T13:21:15.333Z,986.2
2018-12-21T13:24:15.278Z,986.1
2018-12-21T13:27:15.284Z,986.2
2018-12-21T13:30:15.320Z,986.2
2018-12-21T13:33:15.216Z,986.1
2018-12-21T13:36:15.831Z,986.1
2018-12-21T13:39:15.744Z,985.9
2018-12-21T13:42:15.606Z,986.1
2018-12-21T13:45:15.483Z,986.0
2018-12-21T13:48:15.335Z,986.1
2018-12-21T13:51:15.302Z,986.1
2018-12-21T13:54:15.894Z,986.1
2018-12-21T13:57:15.792Z,986.0
2018-12-21T14:00:15.459Z,986.1
2018-12-21T14:03:15.244Z,986.2
2018-12-21T14:06:15.197Z,986.2
2018-12-21T14:09:15.211Z,986.2
2018-12-21T14:12:15.755Z,986.4
2018-12-21T14:15:15.494Z,986.3
2018-12-21T14:18:15.355Z,986.3
2018-12-21T14:21:15.269Z,986.2
2018-12-21T14:24:15.261Z,986.4
2018-12-21T14:27:15.263Z,986.3
2018-12-21T14:30:16.098Z,986.4
2018-12-21T14:33:15.240Z,986.4
2018-12-21T14:36:15.849Z,986.6
2018-12-21T14:39:15.456Z,986.7
2018-12-21T14:42:15.273Z,986.7
2018-12-21T14:45:15.282Z,986.7
2018-12-21T14:48:15.262Z,986.7
2018-12-21T14:51:15.247Z,986.8
2018-12-21T14:54:15.762Z,986.9
2018-12-21T14:57:15.694Z,986.8
2018-12-21T15:00:15.519Z,986.7
2018-12-21T15:03:15.814Z,986.7
2018-12-21T15:06:15.527Z,986.8
2018-12-21T15:09:15.439Z,986.8
2018-12-21T15:12:15.406Z,986.8
2018-12-21T15:15:15.377Z,986.9
2018-12-21T15:18:15.312Z,986.8
2018-12-21T15:21:15.343Z,986.9
2018-12-21T15:24:15.399Z,986.9
2018-12-21T15:27:15.357Z,986.9
2018-12-21T15:30:15.316Z,986.8
2018-12-21T15:33:15.344Z,986.8
2018-12-21T15:36:15.276Z,986.8
2018-12-21T15:39:15.334Z,986.7
2018-12-21T15:42:15.283Z,986.6
2018-12-21T15:45:15.360Z,986.7
2018-12-21T15:48:15.401Z,986.8
2018-12-21T15:51:15.926Z,986.7
2018-12-21T15:54:15.913Z,986.8
2018-12-21T15:57:15.678Z,986.6
2018-12-21T16:00:16.727Z,986.7
2018-12-21T16:03:15.762Z,986.8
2018-12-21T16:06:15.517Z,987.0
2018-12-21T16:09:15.396Z,986.8
2018-12-21T16:12:15.349Z,986.9
2018-12-21T16:15:15.898Z,987.0
2018-12-21T16:18:15.683Z,987.0
2018-12-21T16:21:15.574Z,987.0
2018-12-21T16:24:15.376Z,987.2
2018-12-21T16:27:15.374Z,987.3
2018-12-21T16:30:16.379Z,987.2
2018-12-21T16:33:15.477Z,987.3
2018-12-21T16:36:15.311Z,987.3
2018-12-21T16:39:15.365Z,987.4
2018-12-21T16:42:15.302Z,987.6
2018-12-21T16:45:20.085Z,987.4
2018-12-21T16:48:15.348Z,987.5
2018-12-21T16:51:15.495Z,987.5
2018-12-21T16:54:15.482Z,987.6
2018-12-21T16:57:15.438Z,987.6
2018-12-21T17:00:15.360Z,987.5
2018-12-21T17:03:15.746Z,987.7
2018-12-21T17:06:15.927Z,987.6
2018-12-21T17:09:15.876Z,987.6
2018-12-21T17:12:16.769Z,987.6
2018-12-21T17:15:15.534Z,987.6
2018-12-21T17:18:15.515Z,987.7
2018-12-21T17:21:15.693Z,987.7
2018-12-21T17:24:15.409Z,987.7
2018-12-21T17:27:15.419Z,987.8
2018-12-21T17:30:15.440Z,987.8
2018-12-21T17:33:15.462Z,987.7
2018-12-21T17:36:15.432Z,987.8
2018-12-21T17:39:15.401Z,987.8
2018-12-21T17:42:15.216Z,987.9
2018-12-21T17:45:15.960Z,988.0
2018-12-21T17:48:15.691Z,988.2
2018-12-21T17:51:15.572Z,988.2
2018-12-21T17:54:15.447Z,988.2
2018-12-21T17:57:15.683Z,988.3
2018-12-21T18:00:15.407Z,988.3
2018-12-21T18:03:15.572Z,988.4
2018-12-21T18:06:15.243Z,988.4
2018-12-21T18:09:15.406Z,988.5
2018-12-21T18:12:15.528Z,988.5
2018-12-21T18:15:15.448Z,988.6
2018-12-21T18:18:15.456Z,988.6
2018-12-21T18:21:15.509Z,988.7
2018-12-21T18:24:15.411Z,988.7
2018-12-21T18:27:15.396Z,988.9
2018-12-21T18:30:15.922Z,988.9
2018-12-21T18:33:15.556Z,988.9
2018-12-21T18:36:15.589Z,988.9
2018-12-21T18:39:15.421Z,988.9
2018-12-21T18:42:15.484Z,988.9
2018-12-21T18:45:15.665Z,989.0
2018-12-21T18:48:15.659Z,989.0
2018-12-21T18:51:15.572Z,989.1
2018-12-21T18:54:15.558Z,989.0
2018-12-21T18:57:15.874Z,989.1
2018-12-21T19:00:15.587Z,989.1
2018-12-21T19:03:15.449Z,989.1
2018-12-21T19:06:15.601Z,989.2
2018-12-21T19:09:15.656Z,989.3
2018-12-21T19:12:15.650Z,989.1
2018-12-21T19:15:15.578Z,989.2
2018-12-21T19:18:15.554Z,989.1
2018-12-21T19:21:15.456Z,989.1
2018-12-21T19:24:15.477Z,989.0
2018-12-21T19:27:15.526Z,989.1
2018-12-21T19:30:15.464Z,989.1
2018-12-21T19:33:15.458Z,989.1
2018-12-21T19:36:15.785Z,989.1
2018-12-21T19:39:15.530Z,989.0
2018-12-21T19:42:15.489Z,989.1
2018-12-21T19:45:15.538Z,989.1
2018-12-21T19:48:15.565Z,989.0
2018-12-21T19:51:15.516Z,989.0
2018-12-21T19:54:15.565Z,989.0
2018-12-21T19:57:15.505Z,989.1
2018-12-21T20:00:15.628Z,989.2
2018-12-21T20:03:15.592Z,989.2
2018-12-21T20:06:15.554Z,989.3
2018-12-21T20:09:15.486Z,989.4
2018-12-21T20:12:15.550Z,989.4
2018-12-21T20:15:15.574Z,989.3
2018-12-21T20:18:15.813Z,989.4
2018-12-21T20:21:15.742Z,989.5
2018-12-21T20:24:15.750Z,989.5
2018-12-21T20:27:15.931Z,989.4
2018-12-21T20:30:15.673Z,989.5
2018-12-21T20:33:15.503Z,989.5
2018-12-21T20:36:15.527Z,989.3
2018-12-21T20:39:15.508Z,989.5
2018-12-21T20:42:15.350Z,989.5
2018-12-21T20:45:15.364Z,989.6
2018-12-21T20:48:15.566Z,989.7
2018-12-21T20:51:15.659Z,989.7
2018-12-21T20:54:16.738Z,989.6
2018-12-21T20:57:21.808Z,989.6
2018-12-21T21:00:15.366Z,989.6
2018-12-21T21:03:15.608Z,989.6
2018-12-21T21:06:15.636Z,989.7
2018-12-21T21:09:15.756Z,989.8
2018-12-21T21:12:15.589Z,989.9
2018-12-21T21:15:15.630Z,989.8
2018-12-21T21:18:15.588Z,989.8
2018-12-21T21:21:15.600Z,989.8
2018-12-21T21:24:15.539Z,989.8
2018-12-21T21:27:15.676Z,989.7
2018-12-21T21:30:15.413Z,989.8
2018-12-21T21:33:15.620Z,989.8
2018-12-21T21:36:15.770Z,990.0
2018-12-21T21:39:15.644Z,990.0
2018-12-21T21:42:15.629Z,990.0
2018-12-21T21:45:15.811Z,990.0
2018-12-21T21:48:15.709Z,990.1
2018-12-21T21:51:15.756Z,990.0
2018-12-21T21:54:15.597Z,990.1
2018-12-21T21:57:15.708Z,990.2
2018-12-21T22:00:15.788Z,990.2
2018-12-21T22:03:15.429Z,990.2
2018-12-21T22:06:15.466Z,990.4
2018-12-21T22:09:15.707Z,990.4
2018-12-21T22:12:15.618Z,990.3
2018-12-21T22:15:15.590Z,990.4
2018-12-21T22:18:15.647Z,990.4
2018-12-21T22:21:15.632Z,990.4
2018-12-21T22:24:15.479Z,990.4
2018-12-21T22:27:15.570Z,990.3
2018-12-21T22:30:15.597Z,990.4
2018-12-21T22:33:15.648Z,990.5
2018-12-21T22:36:15.467Z,990.5
2018-12-21T22:39:15.642Z,990.5
2018-12-21T22:42:15.667Z,990.5
2018-12-21T22:45:15.619Z,990.5
2018-12-21T22:48:15.449Z,990.5
2018-12-21T22:51:15.642Z,990.5
2018-12-21T22:54:15.476Z,990.5
2018-12-21T22:57:15.490Z,990.5
2018-12-21T23:00:15.312Z,990.5
2018-12-21T23:03:15.712Z,990.4
2018-12-21T23:06:15.465Z,990.4
2018-12-21T23:09:15.506Z,990.5
2018-12-21T23:12:15.705Z,990.5
2018-12-21T23:15:15.659Z,990.5
2018-12-21T23:18:15.675Z,990.5
2018-12-21T23:21:15.668Z,990.5
2018-12-21T23:24:17.569Z,990.5
2018-12-21T23:27:15.673Z,990.5
2018-12-21T23:30:15.498Z,990.5
2018-12-21T23:33:15.301Z,990.6
2018-12-21T23:36:15.313Z,990.6
2018-12-21T23:39:15.322Z,990.5
2018-12-21T23:42:15.173Z,990.6
2018-12-21T23:45:15.341Z,990.6
2018-12-21T23:48:15.454Z,990.6
2018-12-21T23:51:15.521Z,990.6
2018-12-21T23:54:15.523Z,990.6
2018-12-21T23:57:15.529Z,990.5
